Hovedside
METAR-TAF:

METAR-TAF

Lufthavner :

Værøy, Norge

Værøy helikopterhavn

breddegrad: 67-39-16N, lengdegrad: 12-43-37E, høyde over havet: 5 m

Gjeldene værobservasjon

Denne rapporten ble laget for 15 timer og 22 minutter siden, klokken 14:50 UTC
Vind 11 kt fra Nordvest, skiftende mellom Vest-sørvest og Nord
Temperatur -1°C
Luftfuktighet 54%
Trykk 1012 hPa
Sikt 10 km eller mer
Spredte skyer i en høyde av 2000 ft
Brutte skyer i en høyde av 6000 ft
regnbyger i nærheten

METAR: ENVR 231450Z 31011KT 240V350 9999 VCSH SCT020 BKN060 M01/M09 Q1012

Tid: 07:12 (06:12 UTC)


TAF: fraværende

Værobservasjoner og værvarsel for over 4000 flyplasser (METAR- og TAF-rapporter).

Tilgjengelige stasjoner er representert av de røde og gule prikkene på kartet.

Hold musepekeren over prikken for å se navnet på stasjonen.

Klikk så for å se værobservasjoner og -varsler.

For å forandre kartet kan du klikke på den grønne knappen med svart kryss for å zoome inn, på den grønne knappen med strek for å zoome ut, eller på de grønne pilene for å se tilstøtende kart.


METAR-TAF: